sensor_id;sensor_type;location;lat;lon;timestamp;pressure;altitude;pressure_sealevel;temperature;humidity
61119;BME280;51448;51.660;5.824;2023-02-03T00:00:04;102356.94;;;8.56;100.00
61119;BME280;51448;51.660;5.824;2023-02-03T00:02:37;102351.69;;;8.55;100.00
61119;BME280;51448;51.660;5.824;2023-02-03T00:05:05;102356.97;;;8.53;100.00
61119;BME280;51448;51.660;5.824;2023-02-03T00:07:34;102356.06;;;8.54;100.00
61119;BME280;51448;51.660;5.824;2023-02-03T00:10:04;102350.81;;;8.53;100.00
61119;BME280;51448;51.660;5.824;2023-02-03T00:12:32;102341.22;;;8.55;100.00
61119;BME280;51448;51.660;5.824;2023-02-03T00:15:01;102342.06;;;8.52;100.00
61119;BME280;51448;51.660;5.824;2023-02-03T00:17:28;102342.09;;;8.54;100.00
61119;BME280;51448;51.660;5.824;2023-02-03T00:19:55;102349.97;;;8.54;100.00
61119;BME280;51448;51.660;5.824;2023-02-03T00:22:23;102361.31;;;8.54;100.00
61119;BME280;51448;51.660;5.824;2023-02-03T00:24:50;102370.06;;;8.55;100.00
61119;BME280;51448;51.660;5.824;2023-02-03T00:27:18;102361.34;;;8.56;100.00
61119;BME280;51448;51.660;5.824;2023-02-03T00:29:45;102363.06;;;8.57;100.00
61119;BME280;51448;51.660;5.824;2023-02-03T00:32:13;102378.81;;;8.57;100.00
61119;BME280;51448;51.660;5.824;2023-02-03T00:34:40;102368.31;;;8.57;100.00
61119;BME280;51448;51.660;5.824;2023-02-03T00:37:08;102370.94;;;8.55;100.00
61119;BME280;51448;51.660;5.824;2023-02-03T00:39:36;102371.81;;;8.56;100.00
61119;BME280;51448;51.660;5.824;2023-02-03T00:42:04;102389.28;;;8.57;100.00
61119;BME280;51448;51.660;5.824;2023-02-03T00:44:32;102384.94;;;8.57;100.00
61119;BME280;51448;51.660;5.824;2023-02-03T00:46:59;102386.66;;;8.57;100.00
61119;BME280;51448;51.660;5.824;2023-02-03T00:49:28;102387.56;;;8.59;100.00
61119;BME280;51448;51.660;5.824;2023-02-03T00:51:56;102384.06;;;8.58;100.00
61119;BME280;51448;51.660;5.824;2023-02-03T00:54:23;102381.44;;;8.58;100.00
61119;BME280;51448;51.660;5.824;2023-02-03T00:56:51;102391.94;;;8.58;100.00
61119;BME280;51448;51.660;5.824;2023-02-03T00:59:18;102388.44;;;8.58;100.00
61119;BME280;51448;51.660;5.824;2023-02-03T01:01:46;102388.47;;;8.59;100.00
61119;BME280;51448;51.660;5.824;2023-02-03T01:04:15;102389.31;;;8.60;100.00
61119;BME280;51448;51.660;5.824;2023-02-03T01:06:43;102385.81;;;8.61;100.00
61119;BME280;51448;51.660;5.824;2023-02-03T01:09:10;102398.06;;;8.60;100.00
61119;BME280;51448;51.660;5.824;2023-02-03T01:11:38;102394.56;;;8.63;100.00
61119;BME280;51448;51.660;5.824;2023-02-03T01:14:07;102405.94;;;8.62;100.00
61119;BME280;51448;51.660;5.824;2023-02-03T01:16:35;102394.56;;;8.63;100.00
61119;BME280;51448;51.660;5.824;2023-02-03T01:19:04;102408.59;;;8.63;100.00
61119;BME280;51448;51.660;5.824;2023-02-03T01:21:32;102400.69;;;8.65;100.00
61119;BME280;51448;51.660;5.824;2023-02-03T01:24:01;102397.22;;;8.64;100.00
61119;BME280;51448;51.660;5.824;2023-02-03T01:26:30;102389.34;;;8.64;100.00
61119;BME280;51448;51.660;5.824;2023-02-03T01:28:59;102384.97;;;8.66;100.00
61119;BME280;51448;51.660;5.824;2023-02-03T01:31:35;102378.00;;;8.69;100.00
61119;BME280;51448;51.660;5.824;2023-02-03T01:34:12;102376.25;;;8.69;100.00
61119;BME280;51448;51.660;5.824;2023-02-03T01:36:43;102387.63;;;8.68;100.00
61119;BME280;51448;51.660;5.824;2023-02-03T01:39:11;102383.25;;;8.69;100.00
61119;BME280;51448;51.660;5.824;2023-02-03T01:41:40;102400.75;;;8.70;100.00
61119;BME280;51448;51.660;5.824;2023-02-03T01:47:33;102380.63;;;8.70;100.00
61119;BME280;51448;51.660;5.824;2023-02-03T01:50:18;102367.50;;;8.70;100.00
61119;BME280;51448;51.660;5.824;2023-02-03T01:52:57;102369.25;;;8.71;100.00
61119;BME280;51448;51.660;5.824;2023-02-03T01:55:33;102369.25;;;8.71;100.00
61119;BME280;51448;51.660;5.824;2023-02-03T01:58:11;102371.03;;;8.74;100.00
61119;BME280;51448;51.660;5.824;2023-02-03T02:00:47;102363.16;;;8.72;100.00
61119;BME280;51448;51.660;5.824;2023-02-03T02:03:19;102357.00;;;8.73;100.00
61119;BME280;51448;51.660;5.824;2023-02-03T02:05:58;102348.28;;;8.73;100.00
61119;BME280;51448;51.660;5.824;2023-02-03T02:08:31;102341.28;;;8.72;100.00
61119;BME280;51448;51.660;5.824;2023-02-03T02:11:00;102332.53;;;8.73;100.00
61119;BME280;51448;51.660;5.824;2023-02-03T02:13:30;102327.31;;;8.74;100.00
61119;BME280;51448;51.660;5.824;2023-02-03T02:19:29;102333.41;;;8.73;100.00
61119;BME280;51448;51.660;5.824;2023-02-03T02:22:26;102341.28;;;8.73;100.00
61119;BME280;51448;51.660;5.824;2023-02-03T02:34:16;102324.69;;;8.74;100.00
61119;BME280;51448;51.660;5.824;2023-02-03T02:39:58;102342.16;;;8.75;100.00
61119;BME280;51448;51.660;5.824;2023-02-03T02:46:12;102315.06;;;8.75;100.00
61119;BME280;51448;51.660;5.824;2023-02-03T02:48:51;102313.31;;;8.75;100.00
61119;BME280;51448;51.660;5.824;2023-02-03T02:51:28;102315.94;;;8.77;100.00
61119;BME280;51448;51.660;5.824;2023-02-03T02:54:01;102314.19;;;8.79;100.00
61119;BME280;51448;51.660;5.824;2023-02-03T02:56:33;102318.56;;;8.78;100.00
61119;BME280;51448;51.660;5.824;2023-02-03T02:59:03;102334.34;;;8.80;100.00
61119;BME280;51448;51.660;5.824;2023-02-03T03:01:32;102329.97;;;8.82;100.00
61119;BME280;51448;51.660;5.824;2023-02-03T03:04:04;102332.56;;;8.83;100.00
61119;BME280;51448;51.660;5.824;2023-02-03T03:06:38;102341.34;;;8.84;100.00
61119;BME280;51448;51.660;5.824;2023-02-03T03:09:23;102342.19;;;8.83;100.00
61119;BME280;51448;51.660;5.824;2023-02-03T03:11:57;102336.97;;;8.84;100.00
61119;BME280;51448;51.660;5.824;2023-02-03T03:14:52;102330.81;;;8.85;100.00
61119;BME280;51448;51.660;5.824;2023-02-03T03:17:30;102321.22;;;8.86;100.00
61119;BME280;51448;51.660;5.824;2023-02-03T03:20:05;102305.47;;;8.88;100.00
61119;BME280;51448;51.660;5.824;2023-02-03T03:22:44;102291.47;;;8.85;100.00
61119;BME280;51448;51.660;5.824;2023-02-03T03:25:18;102296.72;;;8.85;100.00
61119;BME280;51448;51.660;5.824;2023-02-03T03:27:55;102297.59;;;8.84;100.00
61119;BME280;51448;51.660;5.824;2023-02-03T03:30:32;102293.22;;;8.83;100.00
61119;BME280;51448;51.660;5.824;2023-02-03T03:33:03;102290.59;;;8.85;100.00
61119;BME280;51448;51.660;5.824;2023-02-03T03:38:40;102291.50;;;8.84;100.00
61119;BME280;51448;51.660;5.824;2023-02-03T03:41:19;102310.72;;;8.84;100.00
61119;BME280;51448;51.660;5.824;2023-02-03T03:43:58;102307.22;;;8.82;100.00
61119;BME280;51448;51.660;5.824;2023-02-03T03:46:34;102309.84;;;8.82;100.00
61119;BME280;51448;51.660;5.824;2023-02-03T03:49:10;102319.44;;;8.83;100.00
61119;BME280;51448;51.660;5.824;2023-02-03T03:51:49;102315.97;;;8.84;100.00
61119;BME280;51448;51.660;5.824;2023-02-03T03:54:23;102314.19;;;8.83;100.00
61119;BME280;51448;51.660;5.824;2023-02-03T03:57:02;102322.09;;;8.85;100.00
61119;BME280;51448;51.660;5.824;2023-02-03T03:59:44;102324.69;;;8.83;100.00
61119;BME280;51448;51.660;5.824;2023-02-03T04:02:16;102313.34;;;8.84;100.00
61119;BME280;51448;51.660;5.824;2023-02-03T04:04:47;102308.13;;;8.86;100.00
61119;BME280;51448;51.660;5.824;2023-02-03T04:07:15;102317.72;;;8.85;100.00
61119;BME280;51448;51.660;5.824;2023-02-03T04:09:43;102325.56;;;8.85;100.00
61119;BME280;51448;51.660;5.824;2023-02-03T04:12:28;102321.22;;;8.88;100.00
61119;BME280;51448;51.660;5.824;2023-02-03T04:14:55;102329.09;;;8.86;100.00
61119;BME280;51448;51.660;5.824;2023-02-03T04:17:22;102340.47;;;8.86;100.00
61119;BME280;51448;51.660;5.824;2023-02-03T04:19:50;102348.34;;;8.86;100.00
61119;BME280;51448;51.660;5.824;2023-02-03T04:22:17;102342.19;;;8.88;100.00
61119;BME280;51448;51.660;5.824;2023-02-03T04:24:45;102341.34;;;8.89;100.00
61119;BME280;51448;51.660;5.824;2023-02-03T04:27:12;102335.22;;;8.88;100.00
61119;BME280;51448;51.660;5.824;2023-02-03T04:29:40;102333.50;;;8.90;100.00
61119;BME280;51448;51.660;5.824;2023-02-03T04:32:07;102341.34;;;8.92;100.00
61119;BME280;51448;51.660;5.824;2023-02-03T04:34:34;102336.97;;;8.94;100.00
61119;BME280;51448;51.660;5.824;2023-02-03T04:37:02;102337.88;;;8.94;100.00
61119;BME280;51448;51.660;5.824;2023-02-03T04:39:29;102337.88;;;8.97;100.00
61119;BME280;51448;51.660;5.824;2023-02-03T04:41:57;102342.25;;;9.00;100.00
61119;BME280;51448;51.660;5.824;2023-02-03T04:44:24;102340.50;;;9.00;100.00
61119;BME280;51448;51.660;5.824;2023-02-03T04:46:52;102342.25;;;9.03;100.00
61119;BME280;51448;51.660;5.824;2023-02-03T04:49:19;102323.91;;;9.04;100.00
61119;BME280;51448;51.660;5.824;2023-02-03T04:51:50;102323.88;;;9.07;99.78
61119;BME280;51448;51.660;5.824;2023-02-03T04:54:17;102317.78;;;9.07;100.00
61119;BME280;51448;51.660;5.824;2023-02-03T04:56:45;102303.78;;;9.11;99.96
61119;BME280;51448;51.660;5.824;2023-02-03T04:59:12;102300.25;;;9.12;99.43
61119;BME280;51448;51.660;5.824;2023-02-03T05:01:40;102291.53;;;9.13;100.00
61119;BME280;51448;51.660;5.824;2023-02-03T05:04:07;102302.91;;;9.14;99.73
61119;BME280;51448;51.660;5.824;2023-02-03T05:06:35;102299.41;;;9.13;99.82
61119;BME280;51448;51.660;5.824;2023-02-03T05:09:02;102299.41;;;9.13;99.54
61119;BME280;51448;51.660;5.824;2023-02-03T05:11:30;102313.41;;;9.15;99.77
61119;BME280;51448;51.660;5.824;2023-02-03T05:13:57;102320.41;;;9.16;99.60
61119;BME280;51448;51.660;5.824;2023-02-03T05:16:25;102314.28;;;9.16;99.59
61119;BME280;51448;51.660;5.824;2023-02-03T05:18:52;102317.78;;;9.16;99.67
61119;BME280;51448;51.660;5.824;2023-02-03T05:21:20;102316.06;;;9.17;99.38
61119;BME280;51448;51.660;5.824;2023-02-03T05:23:48;102316.03;;;9.18;98.88
61119;BME280;51448;51.660;5.824;2023-02-03T05:26:15;102306.41;;;9.20;98.68
61119;BME280;51448;51.660;5.824;2023-02-03T05:28:43;102311.66;;;9.22;99.49
61119;BME280;51448;51.660;5.824;2023-02-03T05:31:10;102320.41;;;9.24;98.83
61119;BME280;51448;51.660;5.824;2023-02-03T05:33:38;102321.28;;;9.24;98.90
61119;BME280;51448;51.660;5.824;2023-02-03T05:36:05;102314.31;;;9.25;98.97
61119;BME280;51448;51.660;5.824;2023-02-03T05:38:33;102325.66;;;9.24;98.78
61119;BME280;51448;51.660;5.824;2023-02-03T05:41:01;102326.53;;;9.24;98.72
61119;BME280;51448;51.660;5.824;2023-02-03T05:43:47;102330.91;;;9.24;98.49
61119;BME280;51448;51.660;5.824;2023-02-03T05:46:14;102329.16;;;9.26;98.85
61119;BME280;51448;51.660;5.824;2023-02-03T05:48:42;102323.94;;;9.27;98.82
61119;BME280;51448;51.660;5.824;2023-02-03T05:51:09;102326.56;;;9.27;98.60
61119;BME280;51448;51.660;5.824;2023-02-03T05:53:37;102329.19;;;9.27;98.42
61119;BME280;51448;51.660;5.824;2023-02-03T05:56:04;102321.31;;;9.27;98.17
61119;BME280;51448;51.660;5.824;2023-02-03T05:58:32;102323.94;;;9.29;98.16
61119;BME280;51448;51.660;5.824;2023-02-03T06:01:00;102323.91;;;9.31;98.13
61119;BME280;51448;51.660;5.824;2023-02-03T06:03:27;102331.78;;;9.31;98.03
61119;BME280;51448;51.660;5.824;2023-02-03T06:05:55;102321.28;;;9.31;98.70
61119;BME280;51448;51.660;5.824;2023-02-03T06:08:22;102321.28;;;9.31;97.73
61119;BME280;51448;51.660;5.824;2023-02-03T06:10:58;102319.56;;;9.31;97.60
61119;BME280;51448;51.660;5.824;2023-02-03T06:13:27;102324.78;;;9.33;97.63
61119;BME280;51448;51.660;5.824;2023-02-03T06:15:54;102322.19;;;9.34;97.15
61119;BME280;51448;51.660;5.824;2023-02-03T06:18:28;102323.03;;;9.35;97.29
61119;BME280;51448;51.660;5.824;2023-02-03T06:20:56;102318.66;;;9.32;97.69
61119;BME280;51448;51.660;5.824;2023-02-03T06:23:23;102304.69;;;9.33;97.49
61119;BME280;51448;51.660;5.824;2023-02-03T06:25:51;102304.69;;;9.32;97.45
61119;BME280;51448;51.660;5.824;2023-02-03T06:28:18;102283.66;;;9.30;97.54
61119;BME280;51448;51.660;5.824;2023-02-03T06:30:49;102300.28;;;9.31;97.60
61119;BME280;51448;51.660;5.824;2023-02-03T06:33:19;102312.56;;;9.32;97.62
61119;BME280;51448;51.660;5.824;2023-02-03T06:35:46;102310.78;;;9.31;96.95
61119;BME280;51448;51.660;5.824;2023-02-03T06:38:14;102317.78;;;9.29;97.86
61119;BME280;51448;51.660;5.824;2023-02-03T06:40:47;102323.03;;;9.29;97.60
61119;BME280;51448;51.660;5.824;2023-02-03T06:43:15;102330.03;;;9.28;97.50
61119;BME280;51448;51.660;5.824;2023-02-03T06:45:46;102329.19;;;9.29;97.23
61119;BME280;51448;51.660;5.824;2023-02-03T06:48:13;102329.19;;;9.27;97.30
61119;BME280;51448;51.660;5.824;2023-02-03T06:50:41;102337.91;;;9.26;97.78
61119;BME280;51448;51.660;5.824;2023-02-03T06:53:09;102321.28;;;9.26;97.40
61119;BME280;51448;51.660;5.824;2023-02-03T06:55:36;102325.69;;;9.25;98.04
61119;BME280;51448;51.660;5.824;2023-02-03T06:58:04;102339.66;;;9.26;98.16
61119;BME280;51448;51.660;5.824;2023-02-03T07:00:31;102330.94;;;9.25;97.58
61119;BME280;51448;51.660;5.824;2023-02-03T07:02:59;102332.69;;;9.25;98.26
61119;BME280;51448;51.660;5.824;2023-02-03T07:05:28;102351.06;;;9.25;97.84
61119;BME280;51448;51.660;5.824;2023-02-03T07:07:56;102368.53;;;9.24;98.08
61119;BME280;51448;51.660;5.824;2023-02-03T07:10:25;102351.03;;;9.26;98.01
61119;BME280;51448;51.660;5.824;2023-02-03T07:12:53;102348.41;;;9.26;97.80
61119;BME280;51448;51.660;5.824;2023-02-03T07:15:20;102344.91;;;9.26;98.02
61119;BME280;51448;51.660;5.824;2023-02-03T07:17:48;102357.19;;;9.25;98.39
61119;BME280;51448;51.660;5.824;2023-02-03T07:20:21;102350.19;;;9.26;98.24
61119;BME280;51448;51.660;5.824;2023-02-03T07:22:51;102351.03;;;9.26;98.13
61119;BME280;51448;51.660;5.824;2023-02-03T07:25:20;102339.66;;;9.26;98.55
61119;BME280;51448;51.660;5.824;2023-02-03T07:27:47;102341.44;;;9.25;97.88
61119;BME280;51448;51.660;5.824;2023-02-03T07:30:15;102346.69;;;9.25;98.08
61119;BME280;51448;51.660;5.824;2023-02-03T07:32:49;102336.19;;;9.25;98.93
61119;BME280;51448;51.660;5.824;2023-02-03T07:35:18;102346.69;;;9.25;98.76
61119;BME280;51448;51.660;5.824;2023-02-03T07:37:46;102348.44;;;9.25;99.13
61119;BME280;51448;51.660;5.824;2023-02-03T07:40:14;102350.16;;;9.24;99.15
61119;BME280;51448;51.660;5.824;2023-02-03T07:42:44;102347.53;;;9.24;99.07
61119;BME280;51448;51.660;5.824;2023-02-03T07:45:14;102357.19;;;9.25;98.89
61119;BME280;51448;51.660;5.824;2023-02-03T07:47:43;102359.78;;;9.24;98.93
61119;BME280;51448;51.660;5.824;2023-02-03T07:50:11;102370.28;;;9.24;99.20
61119;BME280;51448;51.660;5.824;2023-02-03T07:52:39;102372.06;;;9.25;98.57
61119;BME280;51448;51.660;5.824;2023-02-03T07:55:07;102375.56;;;9.25;99.39
61119;BME280;51448;51.660;5.824;2023-02-03T07:57:35;102376.44;;;9.26;98.90
61119;BME280;51448;51.660;5.824;2023-02-03T08:00:03;102376.44;;;9.27;98.82
61119;BME280;51448;51.660;5.824;2023-02-03T08:02:39;102368.56;;;9.29;99.21
61119;BME280;51448;51.660;5.824;2023-02-03T08:05:08;102380.81;;;9.32;99.06
61119;BME280;51448;51.660;5.824;2023-02-03T08:07:36;102381.69;;;9.34;99.16
61119;BME280;51448;51.660;5.824;2023-02-03T08:10:04;102381.72;;;9.35;99.32
61119;BME280;51448;51.660;5.824;2023-02-03T08:12:33;102380.81;;;9.36;99.33
61119;BME280;51448;51.660;5.824;2023-02-03T08:15:00;102378.22;;;9.38;99.46
61119;BME280;51448;51.660;5.824;2023-02-03T08:17:28;102393.06;;;9.39;98.96
61119;BME280;51448;51.660;5.824;2023-02-03T08:19:55;102385.19;;;9.39;99.64
61119;BME280;51448;51.660;5.824;2023-02-03T08:22:23;102389.59;;;9.40;99.35
61119;BME280;51448;51.660;5.824;2023-02-03T08:24:50;102403.59;;;9.40;99.03
61119;BME280;51448;51.660;5.824;2023-02-03T08:27:20;102394.84;;;9.40;99.52
61119;BME280;51448;51.660;5.824;2023-02-03T08:29:49;102415.84;;;9.40;99.70
61119;BME280;51448;51.660;5.824;2023-02-03T08:32:19;102399.22;;;9.41;99.60
61119;BME280;51448;51.660;5.824;2023-02-03T08:34:48;102411.47;;;9.42;99.58
61119;BME280;51448;51.660;5.824;2023-02-03T08:37:19;102402.72;;;9.41;99.93
61119;BME280;51448;51.660;5.824;2023-02-03T08:39:49;102417.59;;;9.44;99.88
61119;BME280;51448;51.660;5.824;2023-02-03T08:42:18;102415.84;;;9.43;99.51
61119;BME280;51448;51.660;5.824;2023-02-03T08:44:46;102411.47;;;9.42;99.42
61119;BME280;51448;51.660;5.824;2023-02-03T08:47:15;102431.59;;;9.43;99.77
61119;BME280;51448;51.660;5.824;2023-02-03T08:49:44;102420.25;;;9.44;99.70
61119;BME280;51448;51.660;5.824;2023-02-03T08:52:12;102428.97;;;9.44;99.87
61119;BME280;51448;51.660;5.824;2023-02-03T08:54:43;102414.09;;;9.45;100.00
61119;BME280;51448;51.660;5.824;2023-02-03T08:57:12;102410.59;;;9.44;99.79
61119;BME280;51448;51.660;5.824;2023-02-03T08:59:41;102410.63;;;9.46;100.00
61119;BME280;51448;51.660;5.824;2023-02-03T09:02:15;102403.63;;;9.48;100.00
61119;BME280;51448;51.660;5.824;2023-02-03T09:04:45;102407.13;;;9.50;99.87
61119;BME280;51448;51.660;5.824;2023-02-03T09:07:13;102404.50;;;9.52;99.78
61119;BME280;51448;51.660;5.824;2023-02-03T09:09:41;102411.47;;;9.51;100.00
61119;BME280;51448;51.660;5.824;2023-02-03T09:12:09;102418.50;;;9.52;100.00
61119;BME280;51448;51.660;5.824;2023-02-03T09:14:38;102418.50;;;9.54;100.00
61119;BME280;51448;51.660;5.824;2023-02-03T09:17:06;102420.25;;;9.53;100.00
61119;BME280;51448;51.660;5.824;2023-02-03T09:19:34;102426.38;;;9.54;100.00
61119;BME280;51448;51.660;5.824;2023-02-03T09:22:03;102430.75;;;9.53;100.00
61119;BME280;51448;51.660;5.824;2023-02-03T09:24:31;102435.13;;;9.54;100.00
61119;BME280;51448;51.660;5.824;2023-02-03T09:26:59;102450.00;;;9.55;100.00
61119;BME280;51448;51.660;5.824;2023-02-03T09:29:27;102447.38;;;9.55;100.00
61119;BME280;51448;51.660;5.824;2023-02-03T09:31:55;102450.03;;;9.57;100.00
61119;BME280;51448;51.660;5.824;2023-02-03T09:34:22;102447.41;;;9.58;100.00
61119;BME280;51448;51.660;5.824;2023-02-03T09:36:50;102447.41;;;9.60;100.00
61119;BME280;51448;51.660;5.824;2023-02-03T09:39:17;102450.03;;;9.61;100.00
61119;BME280;51448;51.660;5.824;2023-02-03T09:47:21;102436.03;;;9.62;100.00
61119;BME280;51448;51.660;5.824;2023-02-03T09:49:56;102441.28;;;9.67;100.00
61119;BME280;51448;51.660;5.824;2023-02-03T09:52:34;102451.78;;;9.65;100.00
61119;BME280;51448;51.660;5.824;2023-02-03T09:55:26;102434.28;;;9.69;100.00
61119;BME280;51448;51.660;5.824;2023-02-03T09:58:11;102436.91;;;9.69;100.00
61119;BME280;51448;51.660;5.824;2023-02-03T10:01:00;102434.28;;;9.72;100.00
61119;BME280;51448;51.660;5.824;2023-02-03T10:03:45;102431.66;;;9.74;100.00
61119;BME280;51448;51.660;5.824;2023-02-03T10:06:40;102446.56;;;9.76;100.00
61119;BME280;51448;51.660;5.824;2023-02-03T10:09:18;102435.16;;;9.79;100.00
61119;BME280;51448;51.660;5.824;2023-02-03T10:15:51;102443.94;;;9.85;100.00
61119;BME280;51448;51.660;5.824;2023-02-03T10:18:27;102452.69;;;9.86;100.00
61119;BME280;51448;51.660;5.824;2023-02-03T10:21:02;102461.44;;;9.90;100.00
61119;BME280;51448;51.660;5.824;2023-02-03T10:23:40;102474.59;;;9.91;100.00
61119;BME280;51448;51.660;5.824;2023-02-03T10:26:15;102462.31;;;9.96;100.00
61119;BME280;51448;51.660;5.824;2023-02-03T10:28:57;102456.22;;;9.99;100.00
61119;BME280;51448;51.660;5.824;2023-02-03T10:31:34;102459.72;;;10.01;99.96
61119;BME280;51448;51.660;5.824;2023-02-03T10:34:10;102451.81;;;10.05;100.00
61119;BME280;51448;51.660;5.824;2023-02-03T10:37:05;102449.19;;;10.08;99.93
61119;BME280;51448;51.660;5.824;2023-02-03T10:39:51;102454.44;;;10.08;100.00
61119;BME280;51448;51.660;5.824;2023-02-03T10:42:21;102457.94;;;10.11;100.00
61119;BME280;51448;51.660;5.824;2023-02-03T10:44:55;102450.06;;;10.17;100.00
61119;BME280;51448;51.660;5.824;2023-02-03T10:47:31;102457.94;;;10.17;99.69
61119;BME280;51448;51.660;5.824;2023-02-03T10:50:15;102454.47;;;10.19;100.00
61119;BME280;51448;51.660;5.824;2023-02-03T10:55:46;102464.06;;;10.19;99.53
61119;BME280;51448;51.660;5.824;2023-02-03T10:58:29;102463.22;;;10.18;99.82
61119;BME280;51448;51.660;5.824;2023-02-03T11:01:09;102457.97;;;10.20;99.81
61119;BME280;51448;51.660;5.824;2023-02-03T11:03:44;102464.94;;;10.21;100.00
61119;BME280;51448;51.660;5.824;2023-02-03T11:06:24;102475.47;;;10.21;100.00
61119;BME280;51448;51.660;5.824;2023-02-03T11:08:52;102479.00;;;10.26;99.90
61119;BME280;51448;51.660;5.824;2023-02-03T11:11:24;102488.63;;;10.27;99.66
61119;BME280;51448;51.660;5.824;2023-02-03T11:16:32;102482.50;;;10.31;99.87
61119;BME280;51448;51.660;5.824;2023-02-03T11:19:20;102469.38;;;10.34;99.33
61119;BME280;51448;51.660;5.824;2023-02-03T11:21:53;102470.25;;;10.33;99.12
61119;BME280;51448;51.660;5.824;2023-02-03T11:24:26;102469.38;;;10.31;99.21
61119;BME280;51448;51.660;5.824;2023-02-03T11:27:04;102473.75;;;10.32;99.25
61119;BME280;51448;51.660;5.824;2023-02-03T11:29:39;102471.13;;;10.32;99.11
61119;BME280;51448;51.660;5.824;2023-02-03T11:32:20;102482.53;;;10.34;99.53
61119;BME280;51448;51.660;5.824;2023-02-03T11:35:01;102481.66;;;10.34;99.19
61119;BME280;51448;51.660;5.824;2023-02-03T11:37:43;102483.41;;;10.36;99.06
61119;BME280;51448;51.660;5.824;2023-02-03T11:42:58;102478.13;;;10.39;98.81
61119;BME280;51448;51.660;5.824;2023-02-03T11:45:41;102467.59;;;10.41;99.08
61119;BME280;51448;51.660;5.824;2023-02-03T11:48:27;102470.25;;;10.42;99.04
61119;BME280;51448;51.660;5.824;2023-02-03T11:51:03;102472.00;;;10.40;99.21
61119;BME280;51448;51.660;5.824;2023-02-03T11:54:23;102466.72;;;10.43;98.73
61119;BME280;51448;51.660;5.824;2023-02-03T12:08:40;102465.84;;;10.35;99.30
61119;BME280;51448;51.660;5.824;2023-02-03T12:14:47;102457.97;;;10.34;99.17
61119;BME280;51448;51.660;5.824;2023-02-03T12:20:40;102462.34;;;10.33;99.56
61119;BME280;51448;51.660;5.824;2023-02-03T12:23:36;102459.72;;;10.33;99.51
61119;BME280;51448;51.660;5.824;2023-02-03T12:26:24;102470.25;;;10.35;99.71
61119;BME280;51448;51.660;5.824;2023-02-03T12:29:06;102478.13;;;10.35;99.95
61119;BME280;51448;51.660;5.824;2023-02-03T12:31:44;102479.91;;;10.34;99.81
61119;BME280;51448;51.660;5.824;2023-02-03T12:35:03;102491.28;;;10.36;99.94
61119;BME280;51448;51.660;5.824;2023-02-03T12:38:39;102496.53;;;10.35;100.00
61119;BME280;51448;51.660;5.824;2023-02-03T12:41:32;102496.53;;;10.33;100.00
61119;BME280;51448;51.660;5.824;2023-02-03T12:44:09;102500.03;;;10.35;100.00
61119;BME280;51448;51.660;5.824;2023-02-03T12:47:00;102498.28;;;10.37;100.00
61119;BME280;51448;51.660;5.824;2023-02-03T12:49:45;102499.16;;;10.39;100.00
61119;BME280;51448;51.660;5.824;2023-02-03T12:52:32;102497.44;;;10.40;100.00
61119;BME280;51448;51.660;5.824;2023-02-03T12:58:05;102497.44;;;10.46;100.00
61119;BME280;51448;51.660;5.824;2023-02-03T13:00:57;102493.03;;;10.46;100.00
61119;BME280;51448;51.660;5.824;2023-02-03T13:03:36;102505.28;;;10.49;100.00
61119;BME280;51448;51.660;5.824;2023-02-03T13:06:27;102502.69;;;10.52;100.00
61119;BME280;51448;51.660;5.824;2023-02-03T13:09:19;102511.44;;;10.53;100.00
61119;BME280;51448;51.660;5.824;2023-02-03T13:12:05;102507.91;;;10.55;99.68
61119;BME280;51448;51.660;5.824;2023-02-03T13:14:41;102516.69;;;10.57;99.88
61119;BME280;51448;51.660;5.824;2023-02-03T13:17:21;102506.16;;;10.62;99.97
61119;BME280;51448;51.660;5.824;2023-02-03T13:20:02;102513.19;;;10.64;99.74
61119;BME280;51448;51.660;5.824;2023-02-03T13:22:40;102503.53;;;10.65;99.70
61119;BME280;51448;51.660;5.824;2023-02-03T13:25:11;102522.84;;;10.69;99.69
61119;BME280;51448;51.660;5.824;2023-02-03T13:36:37;102515.81;;;10.54;100.00
61119;BME280;51448;51.660;5.824;2023-02-03T13:42:27;102511.44;;;10.43;100.00
61119;BME280;51448;51.660;5.824;2023-02-03T13:47:45;102522.84;;;10.39;100.00
61119;BME280;51448;51.660;5.824;2023-02-03T13:50:21;102526.34;;;10.38;100.00
61119;BME280;51448;51.660;5.824;2023-02-03T13:52:57;102523.72;;;10.35;100.00
61119;BME280;51448;51.660;5.824;2023-02-03T13:55:32;102529.88;;;10.34;100.00
61119;BME280;51448;51.660;5.824;2023-02-03T13:58:06;102531.59;;;10.35;100.00
61119;BME280;51448;51.660;5.824;2023-02-03T14:03:39;102538.63;;;10.35;100.00
61119;BME280;51448;51.660;5.824;2023-02-03T14:14:58;102556.91;;;9.69;100.00
61119;BME280;51448;51.660;5.824;2023-02-03T14:20:03;102542.78;;;9.40;100.00
61119;BME280;51448;51.660;5.824;2023-02-03T14:25:43;102543.59;;;9.29;100.00
61119;BME280;51448;51.660;5.824;2023-02-03T14:28:20;102549.72;;;9.26;100.00
61119;BME280;51448;51.660;5.824;2023-02-03T14:31:02;102546.22;;;9.27;100.00
61119;BME280;51448;51.660;5.824;2023-02-03T14:39:29;102575.13;;;9.35;100.00
61119;BME280;51448;51.660;5.824;2023-02-03T14:48:24;102587.44;;;9.46;100.00
61119;BME280;51448;51.660;5.824;2023-02-03T14:51:10;102582.22;;;9.50;100.00
61119;BME280;51448;51.660;5.824;2023-02-03T14:59:49;102595.41;;;9.60;100.00
61119;BME280;51448;51.660;5.824;2023-02-03T15:11:31;102596.28;;;9.65;100.00
61119;BME280;51448;51.660;5.824;2023-02-03T15:14:32;102584.88;;;9.63;100.00
61119;BME280;51448;51.660;5.824;2023-02-03T15:17:03;102587.50;;;9.63;100.00
61119;BME280;51448;51.660;5.824;2023-02-03T15:19:41;102595.38;;;9.63;100.00
61119;BME280;51448;51.660;5.824;2023-02-03T15:22:22;102595.38;;;9.63;100.00
61119;BME280;51448;51.660;5.824;2023-02-03T15:24:55;102601.53;;;9.62;100.00
61119;BME280;51448;51.660;5.824;2023-02-03T15:27:32;102598.03;;;9.60;100.00